Time;durP1;ratioP1;P1;durP2;ratioP2;P2;SDS_P1;SDS_P2;PMS_P1;PMS_P2;Temp;Humidity;BMP_temperature;BMP_pressure;BME280_temperature;BME280_humidity;BME280_pressure;Samples;Min_cycle;Max_cycle;Signal;HPM_P1;HPM_P2
2022/08/02 00:02:19;;;;;;;1999.90;999.90;;;10.60;99.90;;;;;;5096463;27;20071;-75
2022/08/02 00:04:46;;;;;;;1999.90;999.90;;;10.60;99.90;;;;;;5129468;27;20050;-75
2022/08/02 00:07:11;;;;;;;1999.90;999.90;;;10.60;99.90;;;;;;5123291;27;20075;-75
2022/08/02 00:09:37;;;;;;;1999.90;999.90;;;10.60;99.90;;;;;;5075509;27;20071;-75
2022/08/02 00:12:03;;;;;;;1999.90;999.90;;;10.60;99.90;;;;;;5130031;27;20066;-76
2022/08/02 00:14:29;;;;;;;1999.90;999.90;;;10.60;99.90;;;;;;5128770;27;20027;-75
2022/08/02 00:16:55;;;;;;;1999.90;999.90;;;10.60;99.90;;;;;;5129790;27;20513;-76
2022/08/02 00:19:20;;;;;;;1999.90;999.90;;;10.60;99.90;;;;;;5126767;27;20477;-75
2022/08/02 00:21:46;;;;;;;1999.90;999.90;;;10.60;99.90;;;;;;5130195;27;20102;-75
2022/08/02 00:24:12;;;;;;;1999.90;999.90;;;10.60;99.90;;;;;;5109192;27;20383;-76
2022/08/02 00:26:38;;;;;;;1999.90;999.90;;;10.50;99.90;;;;;;5129864;27;20065;-75
2022/08/02 00:29:04;;;;;;;1999.90;999.90;;;10.60;99.90;;;;;;5129428;27;20057;-76
2022/08/02 00:31:29;;;;;;;1999.90;999.90;;;10.50;99.90;;;;;;5124731;27;20470;-75
2022/08/02 00:33:55;;;;;;;1999.90;999.90;;;10.50;99.90;;;;;;5125425;27;20469;-76
2022/08/02 00:36:21;;;;;;;1999.90;999.90;;;10.50;99.90;;;;;;5116395;27;20453;-76
2022/08/02 00:38:47;;;;;;;1999.90;999.90;;;10.40;99.90;;;;;;5129345;27;20035;-75
2022/08/02 00:41:16;;;;;;;1999.90;999.90;;;10.40;99.90;;;;;;5125131;27;20042;-76
2022/08/02 00:43:44;;;;;;;1999.90;999.90;;;10.40;99.90;;;;;;5129316;27;20487;-76
2022/08/02 00:46:10;;;;;;;1999.90;999.90;;;10.40;99.90;;;;;;5117804;27;20104;-76
2022/08/02 00:48:35;;;;;;;1999.90;999.90;;;10.30;99.90;;;;;;5085523;28;20099;-76
2022/08/02 00:51:01;;;;;;;1999.90;999.90;;;10.30;99.90;;;;;;5119649;27;20043;-76
2022/08/02 00:53:27;;;;;;;1999.90;999.90;;;10.20;99.90;;;;;;5119473;27;21317;-76
2022/08/02 00:55:52;;;;;;;1999.90;999.90;;;10.30;99.90;;;;;;5128322;27;20099;-75
2022/08/02 00:58:18;;;;;;;1999.90;999.90;;;10.20;99.90;;;;;;5110671;27;20043;-75
2022/08/02 01:00:44;;;;;;;1999.90;999.90;;;10.20;99.90;;;;;;5098229;28;20108;-75
2022/08/02 01:03:09;;;;;;;1999.90;999.90;;;10.20;99.90;;;;;;5127548;27;20081;-76
2022/08/02 01:05:35;;;;;;;1999.90;999.90;;;10.20;99.90;;;;;;5129406;27;20066;-76
2022/08/02 01:08:02;;;;;;;1999.90;999.90;;;10.20;99.90;;;;;;5092285;28;20475;-76
2022/08/02 01:10:27;;;;;;;1999.90;999.90;;;10.20;99.90;;;;;;5129175;27;20119;-76
2022/08/02 01:12:53;;;;;;;1999.90;999.90;;;10.20;99.90;;;;;;5129541;27;20047;-76
2022/08/02 01:15:20;;;;;;;1999.90;999.90;;;10.20;99.90;;;;;;5128083;27;20126;-76
2022/08/02 01:18:01;;;;;;;1999.90;999.90;;;10.20;99.90;;;;;;5125436;27;20080;-75
2022/08/02 01:20:35;;;;;;;1999.90;999.90;;;10.20;99.90;;;;;;5108214;27;20038;-76
2022/08/02 01:23:07;;;;;;;1999.90;999.90;;;10.20;99.90;;;;;;5129333;27;20069;-75
2022/08/02 01:25:59;;;;;;;1999.90;999.90;;;10.10;99.90;;;;;;5101015;27;20531;-76
2022/08/02 01:28:42;;;;;;;1999.90;999.90;;;10.20;99.90;;;;;;5090404;28;20078;-76
2022/08/02 01:31:26;;;;;;;1999.90;999.90;;;10.20;99.90;;;;;;5092414;28;20047;-76
2022/08/02 01:34:13;;;;;;;1999.90;999.90;;;10.20;99.90;;;;;;5109410;28;20049;-76
2022/08/02 01:36:56;;;;;;;1999.90;999.90;;;10.20;99.90;;;;;;5119610;27;20051;-76
2022/08/02 01:39:24;;;;;;;1999.90;999.90;;;10.20;99.90;;;;;;5103046;27;20051;-76
2022/08/02 01:41:53;;;;;;;1999.90;999.90;;;10.20;99.90;;;;;;5133085;27;20039;-76
2022/08/02 01:44:21;;;;;;;1999.90;999.90;;;10.20;99.90;;;;;;5120144;27;20452;-76
2022/08/02 01:46:49;;;;;;;1999.90;999.90;;;10.20;99.90;;;;;;5129013;27;20382;-76
2022/08/02 01:49:19;;;;;;;1999.90;999.90;;;10.20;99.90;;;;;;5127881;27;20039;-76
2022/08/02 01:54:33;;;;;;;1999.90;999.90;;;10.30;99.90;;;;;;5132423;27;20076;-76
2022/08/02 01:57:02;;;;;;;1999.90;999.90;;;10.30;99.90;;;;;;5090918;27;20039;-76
2022/08/02 01:59:30;;;;;;;1999.90;999.90;;;10.40;99.90;;;;;;5121371;27;20043;-76
2022/08/02 02:01:58;;;;;;;1999.90;999.90;;;10.30;99.90;;;;;;5131637;27;20043;-76
2022/08/02 02:04:26;;;;;;;1999.90;999.90;;;10.30;99.90;;;;;;5129196;27;20031;-75
2022/08/02 02:06:54;;;;;;;1999.90;999.90;;;10.40;99.90;;;;;;5127561;27;20056;-76
2022/08/02 02:09:25;;;;;;;1999.90;999.90;;;10.40;99.90;;;;;;5131639;27;20110;-76
2022/08/02 02:11:51;;;;;;;1999.90;999.90;;;10.50;99.90;;;;;;5096659;27;20050;-76
2022/08/02 02:14:19;;;;;;;1999.90;999.90;;;10.50;99.90;;;;;;5127717;27;20035;-76
2022/08/02 02:16:47;;;;;;;1999.90;999.90;;;10.60;99.90;;;;;;5132183;27;20097;-76
2022/08/02 02:19:17;;;;;;;1999.90;999.90;;;10.60;99.90;;;;;;5112124;27;20095;-76
2022/08/02 02:21:43;;;;;;;1999.90;999.90;;;10.60;99.90;;;;;;5123615;27;20084;-76
2022/08/02 02:24:09;;;;;;;1999.90;999.90;;;10.70;99.90;;;;;;5127033;27;20035;-76
2022/08/02 02:26:36;;;;;;;1999.90;999.90;;;10.70;99.90;;;;;;5127860;27;20050;-76
2022/08/02 02:29:04;;;;;;;1999.90;999.90;;;10.70;99.90;;;;;;5131828;27;20084;-76
2022/08/02 02:31:35;;;;;;;1999.90;999.90;;;10.70;99.90;;;;;;5123841;27;20039;-76
2022/08/02 02:34:06;;;;;;;1999.90;999.90;;;10.70;99.90;;;;;;5132065;27;20035;-76
2022/08/02 02:36:34;;;;;;;1999.90;999.90;;;10.70;99.90;;;;;;5094856;27;20051;-76
2022/08/02 02:39:05;;;;;;;1999.90;999.90;;;10.80;99.90;;;;;;5099336;27;20445;-75
2022/08/02 02:41:31;;;;;;;1999.90;999.90;;;10.80;99.90;;;;;;5111821;27;20611;-75
2022/08/02 02:44:01;;;;;;;1999.90;999.90;;;10.80;99.90;;;;;;5131567;27;20081;-75
2022/08/02 02:46:30;;;;;;;1999.90;999.90;;;10.80;99.90;;;;;;5119284;27;20137;-76
2022/08/02 02:48:56;;;;;;;1999.90;999.90;;;10.80;99.90;;;;;;5102241;28;20152;-76
2022/08/02 02:51:23;;;;;;;1999.90;999.90;;;10.80;99.90;;;;;;5125592;27;20426;-76
2022/08/02 02:53:52;;;;;;;1999.90;999.90;;;10.80;99.90;;;;;;5108184;28;20032;-76
2022/08/02 02:56:19;;;;;;;1999.90;999.90;;;10.90;99.90;;;;;;5125677;27;20573;-76
2022/08/02 02:58:46;;;;;;;1999.90;999.90;;;10.90;99.90;;;;;;5131449;27;20042;-75
2022/08/02 03:01:29;;;;;;;1999.90;999.90;;;11.00;99.90;;;;;;5130099;27;20041;-75
2022/08/02 03:03:57;;;;;;;1999.90;999.90;;;11.00;99.90;;;;;;5113701;27;20420;-75
2022/08/02 03:06:22;;;;;;;1999.90;999.90;;;11.00;99.90;;;;;;5099795;27;20047;-75
2022/08/02 03:08:48;;;;;;;1999.90;999.90;;;11.00;99.90;;;;;;5123161;27;20042;-75
2022/08/02 03:11:14;;;;;;;1999.90;999.90;;;11.00;99.90;;;;;;5129361;27;20140;-76
2022/08/02 03:13:40;;;;;;;1999.90;999.90;;;11.00;99.90;;;;;;5131192;27;20035;-75
2022/08/02 03:16:06;;;;;;;1999.90;999.90;;;11.00;99.90;;;;;;5088747;27;20509;-75
2022/08/02 03:18:37;;;;;;;1999.90;999.90;;;10.90;99.90;;;;;;5094296;27;20518;-76
2022/08/02 03:21:06;;;;;;;1999.90;999.90;;;11.00;99.90;;;;;;5125890;27;20035;-76
2022/08/02 03:23:32;;;;;;;1999.90;999.90;;;11.00;99.90;;;;;;5128876;27;20086;-76
2022/08/02 03:25:58;;;;;;;1999.90;999.90;;;11.00;99.90;;;;;;5131168;27;20050;-75
2022/08/02 03:28:24;;;;;;;1999.90;999.90;;;11.00;99.90;;;;;;5111937;27;20491;-75
2022/08/02 03:30:50;;;;;;;1999.90;999.90;;;11.00;99.90;;;;;;5115875;27;20510;-75
2022/08/02 03:33:18;;;;;;;1999.90;999.90;;;11.10;99.90;;;;;;5094289;27;20042;-75
2022/08/02 03:35:46;;;;;;;1999.90;999.90;;;11.10;99.90;;;;;;5109607;27;20039;-76
2022/08/02 03:38:12;;;;;;;1999.90;999.90;;;11.10;99.90;;;;;;5130420;27;20475;-75
2022/08/02 03:40:40;;;;;;;1999.90;999.90;;;11.10;99.90;;;;;;5096414;27;20056;-75
2022/08/02 03:43:08;;;;;;;1999.90;999.90;;;11.20;99.90;;;;;;5129492;27;20392;-75
2022/08/02 03:45:35;;;;;;;1999.90;999.90;;;11.10;99.90;;;;;;5129990;27;20448;-75
2022/08/02 03:48:02;;;;;;;1999.90;999.90;;;11.20;99.90;;;;;;5125219;27;20487;-75
2022/08/02 03:50:28;;;;;;;1999.90;999.90;;;11.20;99.90;;;;;;5111532;27;20075;-75
2022/08/02 03:52:55;;;;;;;1999.90;999.90;;;11.20;99.90;;;;;;5130123;27;20088;-75
2022/08/02 03:55:21;;;;;;;1999.90;999.90;;;11.20;99.90;;;;;;5105597;27;20510;-75
2022/08/02 03:57:47;;;;;;;1999.90;999.90;;;11.20;99.90;;;;;;5129394;27;20066;-75
2022/08/02 04:00:18;;;;;;;1999.90;999.90;;;11.30;99.90;;;;;;5088277;27;20139;-75
2022/08/02 04:02:44;;;;;;;1999.90;999.90;;;11.30;99.90;;;;;;5129822;27;20031;-75
2022/08/02 04:05:10;;;;;;;1999.90;999.90;;;11.30;99.90;;;;;;5111638;27;20042;-75
2022/08/02 04:07:36;;;;;;;1999.90;999.90;;;11.30;99.90;;;;;;5077496;27;20058;-75
2022/08/02 04:10:02;;;;;;;1999.90;999.90;;;11.30;99.90;;;;;;5124420;27;20124;-75
2022/08/02 04:12:27;;;;;;;1999.90;999.90;;;11.30;99.90;;;;;;5124729;27;20042;-75
2022/08/02 04:14:53;;;;;;;1999.90;999.90;;;11.40;99.90;;;;;;5140696;27;20043;-76
2022/08/02 04:17:20;;;;;;;1999.90;999.90;;;11.40;99.90;;;;;;5119905;27;20047;-76
2022/08/02 04:19:54;;;;;;;1999.90;999.90;;;11.50;99.90;;;;;;5134586;27;20035;-75
2022/08/02 04:22:45;;;;;;;1999.90;999.90;;;11.50;99.90;;;;;;5131986;27;20042;-75
2022/08/02 04:25:11;;;;;;;1999.90;999.90;;;11.50;99.90;;;;;;5113155;27;20043;-75
2022/08/02 04:27:39;;;;;;;1999.90;999.90;;;11.60;99.90;;;;;;5138888;27;20345;-76
2022/08/02 04:30:06;;;;;;;1999.90;999.90;;;11.60;99.90;;;;;;5128802;27;20075;-75
2022/08/02 04:32:33;;;;;;;1999.90;999.90;;;11.60;99.90;;;;;;5136326;27;20095;-76
2022/08/02 04:35:00;;;;;;;1999.90;999.90;;;11.70;99.90;;;;;;5131748;27;20053;-75
2022/08/02 04:37:26;;;;;;;1999.90;999.90;;;11.60;99.90;;;;;;5133538;27;20134;-76
2022/08/02 04:39:52;;;;;;;1999.90;999.90;;;11.70;99.90;;;;;;5107947;27;20138;-75
2022/08/02 04:42:24;;;;;;;1999.90;999.90;;;11.70;99.90;;;;;;5116378;27;20590;-75
2022/08/02 04:44:51;;;;;;;1999.90;999.90;;;11.80;99.90;;;;;;5128834;27;20035;-75
2022/08/02 04:47:18;;;;;;;1999.90;999.90;;;11.80;99.90;;;;;;5093795;28;20186;-75
2022/08/02 04:49:44;;;;;;;1999.90;999.90;;;11.90;99.90;;;;;;5108206;28;20204;-75
2022/08/02 04:52:10;;;;;;;1999.90;999.90;;;11.90;99.90;;;;;;5110313;28;20130;-75
2022/08/02 04:54:35;;;;;;;1999.90;999.90;;;12.00;99.90;;;;;;5110786;28;20382;-75
2022/08/02 04:57:53;;;;;;;1999.90;999.90;;;12.00;99.90;;;;;;5126791;27;20040;-75
2022/08/02 04:59:46;;;;;;;1999.90;999.90;;;12.10;99.90;;;;;;5126814;27;20050;-75
2022/08/02 05:02:12;;;;;;;1999.90;999.90;;;12.10;99.90;;;;;;5128409;27;20035;-75
2022/08/02 05:04:38;;;;;;;1999.90;999.90;;;12.20;99.90;;;;;;5118494;27;20471;-75
2022/08/02 05:07:03;;;;;;;1999.90;999.90;;;12.30;99.90;;;;;;5088740;28;20047;-75
2022/08/02 05:09:29;;;;;;;1999.90;999.90;;;12.40;99.90;;;;;;5126237;27;20040;-75
2022/08/02 05:11:54;;;;;;;1999.90;999.90;;;12.50;99.90;;;;;;5125556;27;20612;-75
2022/08/02 05:14:20;;;;;;;1999.90;999.90;;;12.60;99.90;;;;;;5130504;27;20046;-75
2022/08/02 05:16:45;;;;;;;1999.90;999.90;;;12.70;99.90;;;;;;5132744;27;20047;-75
2022/08/02 05:19:11;;;;;;;1999.90;999.90;;;12.80;99.90;;;;;;5113835;27;20121;-75
2022/08/02 05:21:37;;;;;;;1999.90;999.90;;;12.90;99.90;;;;;;5131902;27;20084;-75
2022/08/02 05:24:03;;;;;;;1999.90;999.90;;;13.00;99.90;;;;;;5133431;27;20031;-75
2022/08/02 05:26:28;;;;;;;1999.90;999.90;;;13.20;99.90;;;;;;5114080;27;20103;-76
2022/08/02 05:28:54;;;;;;;1999.90;999.90;;;13.30;99.90;;;;;;5111339;27;20039;-75
2022/08/02 05:31:20;;;;;;;1999.90;999.90;;;13.50;99.90;;;;;;5132699;27;20049;-75
2022/08/02 05:33:45;;;;;;;1999.90;999.90;;;13.60;99.90;;;;;;5112508;27;20463;-74
2022/08/02 05:36:11;;;;;;;1999.90;999.90;;;13.80;99.90;;;;;;5132450;27;20435;-75
2022/08/02 05:38:36;;;;;;;1999.90;999.90;;;13.90;99.90;;;;;;5132435;27;20386;-75
2022/08/02 05:41:02;;;;;;;1999.90;999.90;;;14.00;99.90;;;;;;5129499;27;20035;-75
2022/08/02 05:43:28;;;;;;;1999.90;999.90;;;14.10;99.90;;;;;;5132161;27;20436;-75
2022/08/02 05:45:54;;;;;;;1999.90;999.90;;;14.30;99.90;;;;;;5119384;27;20096;-75
2022/08/02 05:48:21;;;;;;;1999.90;999.90;;;14.40;99.90;;;;;;5132499;27;20589;-75
2022/08/02 05:50:51;;;;;;;1999.90;999.90;;;14.60;99.90;;;;;;5132871;27;20053;-75
2022/08/02 05:53:43;;;;;;;1999.90;999.90;;;14.80;99.90;;;;;;5128021;27;20051;-75
2022/08/02 05:56:21;;;;;;;1999.90;999.90;;;15.00;99.90;;;;;;5131757;27;20495;-75
2022/08/02 05:59:04;;;;;;;1999.90;999.90;;;15.30;99.90;;;;;;5128952;27;20094;-75
2022/08/02 06:01:39;;;;;;;1999.90;999.90;;;15.90;99.90;;;;;;5096510;27;20082;-75
2022/08/02 06:04:11;;;;;;;1999.90;999.90;;;16.50;99.90;;;;;;5130297;27;20035;-75
2022/08/02 06:06:42;;;;;;;1999.90;999.90;;;17.30;99.90;;;;;;5132234;27;20100;-76
2022/08/02 06:09:17;;;;;;;1999.90;999.90;;;17.80;99.90;;;;;;5119297;27;20039;-75
2022/08/02 06:11:51;;;;;;;1999.90;999.90;;;17.80;99.90;;;;;;5131772;27;20062;-75
2022/08/02 06:14:18;;;;;;;1999.90;999.90;;;17.50;99.90;;;;;;5111819;27;20047;-75
2022/08/02 06:16:44;;;;;;;1999.90;999.90;;;17.20;99.90;;;;;;5112448;27;20043;-75
2022/08/02 06:19:13;;;;;;;1999.90;999.90;;;17.00;99.90;;;;;;5118221;27;20037;-75
2022/08/02 06:21:41;;;;;;;1999.90;999.90;;;16.90;99.90;;;;;;5130555;27;20380;-75
2022/08/02 06:24:09;;;;;;;1999.90;999.90;;;16.80;99.90;;;;;;5126980;27;20129;-75
2022/08/02 06:26:35;;;;;;;1999.90;999.90;;;16.90;99.90;;;;;;5131423;27;20054;-75
2022/08/02 06:29:03;;;;;;;1999.90;999.90;;;17.10;99.90;;;;;;5112086;27;20070;-75
2022/08/02 06:31:29;;;;;;;1999.90;999.90;;;17.70;99.90;;;;;;5124255;27;20129;-75
2022/08/02 06:33:55;;;;;;;1999.90;999.90;;;18.30;99.90;;;;;;5130869;27;20038;-75
2022/08/02 06:36:37;;;;;;;1999.90;999.90;;;18.50;99.90;;;;;;5128784;27;20075;-76
2022/08/02 06:39:14;;;;;;;1999.90;999.90;;;18.60;99.90;;;;;;5118103;27;20552;-75
2022/08/02 06:41:43;;;;;;;1999.90;999.90;;;18.50;99.90;;;;;;5103504;27;20126;-76
2022/08/02 06:44:09;;;;;;;1999.90;999.90;;;18.50;99.90;;;;;;5098230;27;20118;-76
2022/08/02 06:46:34;;;;;;;1999.90;999.90;;;18.50;99.90;;;;;;5101452;27;20126;-76
2022/08/02 06:49:01;;;;;;;1999.90;999.90;;;18.60;99.90;;;;;;5096961;27;20043;-75
2022/08/02 06:51:27;;;;;;;1999.90;999.90;;;18.70;99.90;;;;;;5118746;27;20035;-75
2022/08/02 06:53:53;;;;;;;1999.90;999.90;;;19.50;99.90;;;;;;5107760;27;20073;-75
2022/08/02 06:56:19;;;;;;;1999.90;999.90;;;20.20;99.90;;;;;;5092562;27;20474;-76
2022/08/02 06:58:45;;;;;;;1999.90;999.90;;;20.80;99.90;;;;;;5126453;27;20035;-75
2022/08/02 07:01:11;;;;;;;1999.90;999.90;;;21.10;99.90;;;;;;5124440;27;20035;-75
2022/08/02 07:03:39;;;;;;;1999.90;999.90;;;21.50;99.90;;;;;;5092078;28;20039;-76
2022/08/02 07:06:08;;;;;;;1999.90;999.90;;;21.70;99.90;;;;;;5119216;27;20031;-76
2022/08/02 07:08:36;;;;;;;1999.90;999.90;;;22.00;99.90;;;;;;5121212;27;20043;-76
2022/08/02 07:11:02;;;;;;;1999.90;999.90;;;22.40;99.90;;;;;;5131207;27;20042;-75
2022/08/02 07:13:28;;;;;;;1999.90;999.90;;;22.40;99.90;;;;;;5108067;27;20092;-76
2022/08/02 07:15:55;;;;;;;1999.90;999.90;;;22.30;99.90;;;;;;5130800;27;20494;-76
2022/08/02 07:18:22;;;;;;;1999.90;999.90;;;22.20;99.90;;;;;;5131108;27;20091;-76
2022/08/02 07:20:47;;;;;;;1999.90;999.90;;;21.90;99.90;;;;;;5124441;27;20043;-76
2022/08/02 07:23:13;;;;;;;1999.90;999.90;;;21.80;99.90;;;;;;5131274;27;20042;-75
2022/08/02 07:25:39;;;;;;;1999.90;999.90;;;21.80;99.90;;;;;;5131031;27;20438;-75
2022/08/02 07:28:05;;;;;;;1999.90;999.90;;;22.00;99.90;;;;;;5125454;27;20085;-76
2022/08/02 07:30:31;;;;;;;1999.90;999.90;;;22.50;99.90;;;;;;5130142;27;20039;-75
2022/08/02 07:32:58;;;;;;;1999.90;999.90;;;22.10;99.90;;;;;;5108605;28;20611;-75
2022/08/02 07:35:24;;;;;;;1999.90;999.90;;;21.70;99.90;;;;;;5122973;27;20402;-75
2022/08/02 07:37:49;;;;;;;1999.90;999.90;;;21.30;99.90;;;;;;5101004;27;20043;-75
2022/08/02 07:40:15;;;;;;;1999.90;999.90;;;21.00;99.90;;;;;;5118696;27;20079;-75
2022/08/02 07:42:42;;;;;;;1999.90;999.90;;;21.10;99.90;;;;;;5128009;27;20039;-76
2022/08/02 07:45:08;;;;;;;1999.90;999.90;;;21.30;99.90;;;;;;5129243;27;20035;-76
2022/08/02 07:47:38;;;;;;;1999.90;999.90;;;21.20;99.90;;;;;;5096813;27;20035;-76
2022/08/02 07:50:06;;;;;;;1999.90;999.90;;;21.10;99.90;;;;;;5130224;27;20046;-75
2022/08/02 07:52:31;;;;;;;1999.90;999.90;;;20.90;99.90;;;;;;5129811;27;20035;-76
2022/08/02 07:54:57;;;;;;;1999.90;999.90;;;20.80;99.90;;;;;;5124037;27;20386;-76
2022/08/02 07:57:24;;;;;;;1999.90;999.90;;;20.90;99.90;;;;;;5126358;27;20047;-76
2022/08/02 07:59:50;;;;;;;1999.90;999.90;;;20.90;99.90;;;;;;5119530;27;20107;-75
2022/08/02 08:02:16;;;;;;;1999.90;999.90;;;20.90;99.90;;;;;;5125637;27;20070;-75
2022/08/02 08:04:42;;;;;;;1999.90;999.90;;;20.90;99.40;;;;;;5127920;27;20070;-76
2022/08/02 08:07:10;;;;;;;1999.90;999.90;;;21.00;99.90;;;;;;5129084;27;20035;-75
2022/08/02 08:09:40;;;;;;;1999.90;999.90;;;21.00;97.20;;;;;;5129840;27;20495;-75
2022/08/02 08:12:09;;;;;;;1999.90;999.90;;;21.00;99.00;;;;;;5129522;27;20043;-76
2022/08/02 08:14:36;;;;;;;1999.90;999.90;;;21.10;99.90;;;;;;5124574;27;20062;-75
2022/08/02 08:17:02;;;;;;;1999.90;999.90;;;21.20;99.90;;;;;;5130072;27;20043;-76
2022/08/02 08:19:28;;;;;;;1999.90;999.90;;;21.20;97.70;;;;;;5129055;27;20084;-75
2022/08/02 08:21:53;;;;;;;1999.90;999.90;;;21.30;99.80;;;;;;5120617;27;20514;-75
2022/08/02 08:24:19;;;;;;;1999.90;999.90;;;21.30;97.20;;;;;;5125376;27;20546;-75
2022/08/02 08:26:45;;;;;;;1999.90;999.90;;;21.40;99.50;;;;;;5110395;27;20054;-75
2022/08/02 08:29:10;;;;;;;1999.90;999.90;;;21.40;98.10;;;;;;5120206;27;20090;-76
2022/08/02 08:31:36;;;;;;;1999.90;999.90;;;21.50;99.90;;;;;;5111171;27;20464;-75
2022/08/02 08:34:02;;;;;;;1999.90;999.90;;;21.60;98.30;;;;;;5129503;27;20043;-76
2022/08/02 08:36:28;;;;;;;1999.90;999.90;;;21.60;98.20;;;;;;5117494;27;20437;-75
2022/08/02 08:38:54;;;;;;;1999.90;999.90;;;21.70;97.60;;;;;;5116004;27;20077;-75
2022/08/02 08:41:19;;;;;;;1999.90;999.90;;;22.10;98.90;;;;;;5115530;27;20491;-75
2022/08/02 08:43:46;;;;;;;1999.90;999.90;;;22.30;95.60;;;;;;5125523;27;20499;-75
2022/08/02 08:46:27;;;;;;;1999.90;999.90;;;22.50;97.90;;;;;;5115257;27;20446;-76
2022/08/02 08:49:08;;;;;;;1999.90;999.90;;;23.00;98.00;;;;;;5114909;27;20039;-75
2022/08/02 08:51:42;;;;;;;1999.90;999.90;;;23.30;95.00;;;;;;5115710;27;20507;-75
2022/08/02 08:54:13;;;;;;;1999.90;999.90;;;23.80;96.00;;;;;;5092749;28;20084;-75
2022/08/02 08:56:40;;;;;;;1999.90;999.90;;;24.20;95.30;;;;;;5117767;27;20122;-76
2022/08/02 08:59:06;;;;;;;1999.90;999.90;;;24.60;95.20;;;;;;5125967;27;20316;-76
2022/08/02 09:01:33;;;;;;;1999.90;999.90;;;24.90;94.40;;;;;;5128890;27;20035;-76
2022/08/02 09:03:58;;;;;;;1999.90;999.90;;;25.00;93.30;;;;;;5129039;27;20416;-76
2022/08/02 09:06:25;;;;;;;1999.90;999.90;;;25.40;91.20;;;;;;5126302;27;21992;-76
2022/08/02 09:08:51;;;;;;;1999.90;999.90;;;25.60;90.80;;;;;;5129187;27;20121;-75
2022/08/02 09:11:23;;;;;;;1999.90;999.90;;;25.90;93.60;;;;;;5122049;27;20354;-75
2022/08/02 09:13:55;;;;;;;1999.90;999.90;;;26.00;90.40;;;;;;5111070;28;20117;-74
2022/08/02 09:16:41;;;;;;;1999.90;999.90;;;26.20;89.60;;;;;;5128729;27;20043;-76
2022/08/02 09:19:17;;;;;;;1999.90;999.90;;;26.20;90.10;;;;;;5084780;28;20078;-75
2022/08/02 09:21:43;;;;;;;1999.90;999.90;;;26.30;86.30;;;;;;5107964;27;20244;-76
2022/08/02 09:24:21;;;;;;;1999.90;999.90;;;26.30;87.10;;;;;;5129865;27;20118;-75
2022/08/02 09:26:48;;;;;;;1999.90;999.90;;;26.40;83.70;;;;;;5131981;27;20577;-75
2022/08/02 09:29:15;;;;;;;1999.90;999.90;;;26.50;84.90;;;;;;5127520;27;20047;-76
2022/08/02 09:31:41;;;;;;;1999.90;999.90;;;26.60;81.50;;;;;;5128156;27;20080;-76
2022/08/02 09:34:07;;;;;;;1999.90;999.90;;;26.70;85.70;;;;;;5123133;27;20087;-75
2022/08/02 09:36:44;;;;;;;1999.90;999.90;;;27.00;86.60;;;;;;5107380;28;20709;-75
2022/08/02 09:39:12;;;;;;;1999.90;999.90;;;27.20;83.40;;;;;;5112861;27;20524;-76
2022/08/02 09:41:42;;;;;;;1999.90;999.90;;;27.00;80.10;;;;;;5085917;28;20115;-75
2022/08/02 09:44:09;;;;;;;1999.90;999.90;;;26.80;80.90;;;;;;5109676;27;20058;-75
2022/08/02 09:46:43;;;;;;;1999.90;999.90;;;26.50;84.10;;;;;;5109386;27;20043;-75
2022/08/02 09:49:11;;;;;;;1999.90;999.90;;;26.40;81.70;;;;;;5104560;27;20503;-76
2022/08/02 09:51:50;;;;;;;1999.90;999.90;;;26.20;85.00;;;;;;5128451;27;20050;-76
2022/08/02 09:54:18;;;;;;;1999.90;999.90;;;26.40;87.50;;;;;;5123214;27;20384;-76
2022/08/02 09:56:48;;;;;;;1999.90;999.90;;;26.70;89.20;;;;;;5128954;27;20110;-75
2022/08/02 09:59:15;;;;;;;1999.90;999.90;;;26.90;85.10;;;;;;5106569;27;20062;-76
2022/08/02 10:01:43;;;;;;;1999.90;999.90;;;26.90;82.70;;;;;;5106824;27;20503;-76
2022/08/02 10:04:11;;;;;;;1999.90;999.90;;;26.80;85.60;;;;;;5112146;27;20080;-75
2022/08/02 10:06:42;;;;;;;1999.90;999.90;;;27.00;86.70;;;;;;5132860;27;20050;-76
2022/08/02 10:09:11;;;;;;;1999.90;999.90;;;27.10;84.90;;;;;;5127114;27;20483;-77
2022/08/02 10:11:37;;;;;;;1999.90;999.90;;;27.20;88.20;;;;;;5128523;27;20509;-76
2022/08/02 10:14:04;;;;;;;1999.90;999.90;;;27.40;87.30;;;;;;5129000;27;20038;-74
2022/08/02 10:16:33;;;;;;;1999.90;999.90;;;27.30;83.60;;;;;;5110766;27;20990;-74
2022/08/02 10:19:01;;;;;;;1999.90;999.90;;;27.10;85.40;;;;;;5129670;27;20106;-74
2022/08/02 10:21:37;;;;;;;1999.90;999.90;;;27.00;86.40;;;;;;5106889;27;20039;-76
2022/08/02 10:24:08;;;;;;;1999.90;999.90;;;27.10;87.10;;;;;;5107180;27;20035;-76
2022/08/02 10:26:35;;;;;;;1999.90;999.90;;;27.40;88.80;;;;;;5129565;27;20046;-76
2022/08/02 10:29:01;;;;;;;1999.90;999.90;;;27.70;88.80;;;;;;5125800;27;20077;-76
2022/08/02 10:31:33;;;;;;;1999.90;999.90;;;27.90;90.70;;;;;;5129662;27;20031;-77
2022/08/02 10:34:00;;;;;;;;;;;28.30;90.30;;;;;;5116792;27;20125;-77
2022/08/02 10:36:31;;;;;;;1999.90;999.90;;;28.30;89.30;;;;;;5123929;27;19927;-76
2022/08/02 10:38:58;;;;;;;1999.90;999.90;;;27.90;84.50;;;;;;5099966;27;20173;-76
2022/08/02 10:41:41;;;;;;;1999.90;999.90;;;27.70;87.00;;;;;;5137255;27;20122;-76
2022/08/02 10:44:07;;;;;;;1999.90;999.90;;;27.50;88.80;;;;;;5131252;27;20374;-75
2022/08/02 10:46:34;;;;;;;1999.90;999.90;;;27.30;87.20;;;;;;5122573;27;20031;-77
2022/08/02 10:49:16;;;;;;;1999.90;999.90;;;27.10;90.20;;;;;;5122002;27;20521;-76
2022/08/02 10:52:00;;;;;;;1999.90;999.90;;;27.20;90.00;;;;;;5087073;27;20390;-75
2022/08/02 10:54:31;;;;;;;1999.90;999.90;;;27.30;90.20;;;;;;5105099;27;20047;-75
2022/08/02 10:56:59;;;;;;;1999.90;999.90;;;27.40;87.70;;;;;;5127749;27;20090;-76
2022/08/02 10:59:36;;;;;;;1999.90;999.90;;;27.40;87.10;;;;;;5093035;27;20546;-76
2022/08/02 11:02:05;;;;;;;1999.90;999.90;;;27.30;88.30;;;;;;5118661;27;20441;-76
2022/08/02 11:04:40;;;;;;;1999.90;999.90;;;27.10;87.30;;;;;;5106941;27;20073;-75
2022/08/02 11:07:13;;;;;;;1999.90;999.90;;;26.90;87.70;;;;;;5088559;27;20122;-77
2022/08/02 11:09:44;;;;;;;1999.90;999.90;;;26.70;87.60;;;;;;5127977;27;20046;-76
2022/08/02 11:12:12;;;;;;;1999.90;999.90;;;26.50;90.10;;;;;;5091613;27;20043;-76
2022/08/02 11:14:40;;;;;;;1999.90;999.90;;;26.40;89.70;;;;;;5093957;27;20167;-76
2022/08/02 11:17:08;;;;;;;1999.90;999.90;;;26.30;90.50;;;;;;5089570;27;20050;-76
2022/08/02 11:19:34;;;;;;;1999.90;999.90;;;26.30;90.00;;;;;;5107053;27;20407;-75
2022/08/02 11:22:01;;;;;;;1999.90;999.90;;;26.40;89.10;;;;;;5104864;27;20660;-74
2022/08/02 11:24:32;;;;;;;1999.90;999.90;;;26.50;88.90;;;;;;5086795;27;20040;-75
2022/08/02 11:27:00;;;;;;;1999.90;999.90;;;26.60;88.80;;;;;;5093335;27;20047;-76
2022/08/02 11:29:40;;;;;;;1999.90;999.90;;;26.60;89.50;;;;;;5088170;27;20054;-76
2022/08/02 11:32:13;;;;;;;1999.90;999.90;;;26.60;88.30;;;;;;5100202;27;20382;-76
2022/08/02 11:34:41;;;;;;;1999.90;999.90;;;26.70;89.90;;;;;;5095710;27;20392;-77
2022/08/02 11:37:07;;;;;;;1999.90;999.90;;;26.80;88.10;;;;;;5079603;27;20444;-76
2022/08/02 11:39:33;;;;;;;1999.90;999.90;;;26.70;89.60;;;;;;5084687;28;20059;-76
2022/08/02 11:41:59;;;;;;;1999.90;999.90;;;26.80;90.30;;;;;;5070745;28;20395;-76
2022/08/02 11:44:27;;;;;;;1999.90;999.90;;;26.90;90.90;;;;;;5100405;27;20070;-77
2022/08/02 11:47:00;;;;;;;1999.90;999.90;;;27.20;91.00;;;;;;5096872;27;20089;-77
2022/08/02 11:49:27;;;;;;;1999.90;999.90;;;27.50;91.00;;;;;;5127947;27;20042;-75
2022/08/02 11:52:04;;;;;;;1999.90;999.90;;;27.70;90.60;;;;;;5072118;27;20084;-76
2022/08/02 11:54:48;;;;;;;1999.90;999.90;;;27.80;90.90;;;;;;5079144;27;20134;-75
2022/08/02 11:57:18;;;;;;;1999.90;999.90;;;27.90;91.40;;;;;;5069035;28;20158;-76
2022/08/02 11:59:45;;;;;;;1999.90;999.90;;;27.90;90.00;;;;;;5098858;27;20097;-76
2022/08/02 12:02:11;;;;;;;1999.90;999.90;;;27.80;90.60;;;;;;5088487;27;20046;-76
2022/08/02 12:04:38;;;;;;;1999.90;999.90;;;27.80;90.40;;;;;;5067619;27;20422;-75
2022/08/02 12:07:05;;;;;;;1999.90;999.90;;;27.70;90.90;;;;;;5073816;28;20485;-77
2022/08/02 12:09:32;;;;;;;1999.90;999.90;;;27.60;91.30;;;;;;5093049;27;20416;-77